Middle Amana, Iowa
Current Conditions -  °F | °C
As of 10:52 AM on Saturday 20 Dec 2014 (Local Time) from KCID Reporting Station
Haze Haze  
Wind Chill: 24°   Ceiling: 600
Heat Index: 31°   Visibility: 2.5mi
Dew Point: 29°   Wind: 7mph
Humidity: 92%   Direction: 160°SSE
Pressure: 30.21"   Gusts: NA
Location:  41.8°N, 91.9°W
Report Text: KCID 201652Z 16006KT 2 1/2SM BR OVC006 M01/M02 A3021 RMK AO2 SLP240 T10061017 $
Loading
Personal Weather Stations






























Interactive Weather Map New forecast layout! Learn more

10-Day Weather Forecast

Advertisements
Track Severe Weather on mobile